createdAt,value
2022-10-13T00:00:25.101Z,0
2022-10-13T00:05:25.105Z,0
2022-10-13T00:10:25.107Z,0
2022-10-13T00:15:25.110Z,0
2022-10-13T00:20:25.107Z,0
2022-10-13T00:25:25.104Z,0
2022-10-13T00:30:25.105Z,0
2022-10-13T00:35:25.107Z,6.5
2022-10-13T00:40:25.103Z,0
2022-10-13T00:45:25.112Z,5.7
2022-10-13T00:50:25.111Z,0
2022-10-13T00:55:25.122Z,0
2022-10-13T01:00:25.101Z,4.3
2022-10-13T01:05:25.116Z,0
2022-10-13T01:10:25.107Z,6
2022-10-13T01:15:25.101Z,0
2022-10-13T01:20:25.110Z,0
2022-10-13T01:25:25.112Z,0
2022-10-13T01:30:25.106Z,5.9
2022-10-13T01:35:25.113Z,5.9
2022-10-13T01:40:25.104Z,0
2022-10-13T01:45:25.109Z,4.2
2022-10-13T01:50:25.106Z,0
2022-10-13T01:55:25.104Z,0
2022-10-13T02:00:25.129Z,5
2022-10-13T02:05:25.116Z,6.2
2022-10-13T02:10:25.107Z,6.1
2022-10-13T02:15:25.119Z,0
2022-10-13T02:20:25.104Z,0
2022-10-13T02:25:25.101Z,0
2022-10-13T02:30:25.109Z,4
2022-10-13T02:35:25.110Z,5.2
2022-10-13T02:40:25.119Z,4.5
2022-10-13T02:45:25.125Z,0
2022-10-13T02:50:25.096Z,0
2022-10-13T02:55:25.116Z,0
2022-10-13T03:00:25.097Z,0
2022-10-13T03:05:25.114Z,0
2022-10-13T03:10:25.119Z,0
2022-10-13T03:15:25.129Z,0
2022-10-13T03:20:25.111Z,0
2022-10-13T03:25:25.102Z,0
2022-10-13T03:30:25.108Z,0
2022-10-13T03:35:25.115Z,0
2022-10-13T03:40:25.107Z,0
2022-10-13T03:45:25.119Z,0
2022-10-13T03:50:25.112Z,0
2022-10-13T03:55:25.107Z,0
2022-10-13T04:00:25.106Z,0
2022-10-13T04:05:25.109Z,0
2022-10-13T04:10:25.111Z,0
2022-10-13T04:15:25.112Z,0
2022-10-13T04:20:25.096Z,0
2022-10-13T04:25:25.120Z,0
2022-10-13T04:30:25.111Z,0
2022-10-13T04:35:25.118Z,0
2022-10-13T04:40:25.116Z,0
2022-10-13T04:45:25.116Z,0
2022-10-13T04:50:25.117Z,0
2022-10-13T04:55:25.119Z,0
2022-10-13T05:00:25.157Z,5.4
2022-10-13T05:05:25.119Z,5.8
2022-10-13T05:10:25.112Z,0
2022-10-13T05:15:25.117Z,7
2022-10-13T05:20:25.118Z,8
2022-10-13T05:25:25.255Z,7.1
2022-10-13T05:30:25.090Z,10.7
2022-10-13T05:35:25.109Z,10.1
2022-10-13T05:40:25.098Z,9.7
2022-10-13T05:45:25.108Z,9.2
2022-10-13T05:50:25.108Z,10.6
2022-10-13T05:55:25.100Z,9.9
2022-10-13T06:00:25.102Z,12.9
2022-10-13T06:05:25.115Z,8.2
2022-10-13T06:10:25.117Z,5.5
2022-10-13T06:15:28.092Z,6.5
2022-10-13T06:20:25.140Z,7
2022-10-13T06:25:25.124Z,7.1
2022-10-13T06:30:25.143Z,5.8
2022-10-13T06:35:25.116Z,5.8
2022-10-13T06:40:25.109Z,4.6
2022-10-13T06:45:25.117Z,0
2022-10-13T06:50:25.097Z,6
2022-10-13T06:55:25.101Z,5.3
2022-10-13T07:00:25.114Z,4.5
2022-10-13T07:05:25.097Z,8.1
2022-10-13T07:10:25.101Z,7.1
2022-10-13T07:15:25.115Z,8.6
2022-10-13T07:20:25.102Z,8
2022-10-13T07:25:25.103Z,5.6
2022-10-13T07:30:25.098Z,8.6
2022-10-13T07:35:29.624Z,11.2
2022-10-13T07:40:25.117Z,11.5
2022-10-13T07:45:25.100Z,9.4
2022-10-13T07:50:25.106Z,8.3
2022-10-13T07:55:25.168Z,13.8
2022-10-13T08:00:25.104Z,13
2022-10-13T08:05:25.119Z,8.9
2022-10-13T08:10:25.104Z,10.9
2022-10-13T08:15:25.106Z,9.5
2022-10-13T08:20:28.757Z,10.7
2022-10-13T08:25:25.112Z,11.3
2022-10-13T08:30:25.181Z,8.9
2022-10-13T08:35:25.111Z,13.4
2022-10-13T08:40:25.103Z,15.2
2022-10-13T08:45:41.944Z,13.2
2022-10-13T08:50:25.099Z,11.2
2022-10-13T08:55:25.115Z,15.7
2022-10-13T09:00:25.115Z,10.7
2022-10-13T09:05:25.105Z,11.1
2022-10-13T09:10:25.120Z,11.8
2022-10-13T09:15:25.107Z,10.8
2022-10-13T09:20:25.111Z,10.6
2022-10-13T09:25:25.111Z,15.8
2022-10-13T09:30:25.107Z,9.4
2022-10-13T09:35:25.116Z,9.4
2022-10-13T09:40:25.097Z,12.3
2022-10-13T09:45:25.123Z,10.9
2022-10-13T09:50:25.108Z,10.9
2022-10-13T09:55:28.684Z,12.1
2022-10-13T10:00:25.105Z,12.1
2022-10-13T10:05:25.116Z,12.7
2022-10-13T10:10:25.117Z,12.7
2022-10-13T10:15:25.110Z,9.4
2022-10-13T10:20:25.107Z,11.2
2022-10-13T10:25:25.116Z,9.2
2022-10-13T10:30:25.106Z,6.9
2022-10-13T10:35:25.116Z,9.3
2022-10-13T10:40:25.113Z,10.3
2022-10-13T10:45:25.110Z,11.1
2022-10-13T10:50:25.105Z,10.4
2022-10-13T10:55:25.100Z,7.1
2022-10-13T11:00:25.201Z,8
2022-10-13T11:05:25.112Z,0
2022-10-13T11:10:25.110Z,4
2022-10-13T11:15:25.111Z,5.6
2022-10-13T11:20:25.107Z,4.8
2022-10-13T11:25:25.111Z,5.7
2022-10-13T11:30:25.130Z,8.1
2022-10-13T11:35:25.107Z,7.1
2022-10-13T11:40:25.126Z,8.2
2022-10-13T11:45:25.118Z,8.1
2022-10-13T11:50:25.112Z,8.1
2022-10-13T11:55:25.111Z,4.5
2022-10-13T12:00:25.107Z,8.1
2022-10-13T12:05:25.107Z,11.1
2022-10-13T12:10:25.120Z,14.2
2022-10-13T12:15:25.109Z,9.1
2022-10-13T12:20:25.112Z,8.6
2022-10-13T12:25:25.117Z,13.4
2022-10-13T12:30:25.102Z,10.6
2022-10-13T12:35:25.120Z,15.2
2022-10-13T12:40:25.107Z,15
2022-10-13T12:45:25.130Z,11.2
2022-10-13T12:50:25.111Z,11.9
2022-10-13T12:55:25.116Z,12.3
2022-10-13T13:00:25.183Z,14.2
2022-10-13T13:05:25.109Z,10.6
2022-10-13T13:10:25.115Z,8.4
2022-10-13T13:15:25.116Z,9.1
2022-10-13T13:20:25.119Z,8.5
2022-10-13T13:25:25.110Z,7.4
2022-10-13T13:30:25.112Z,7.5
2022-10-13T13:35:25.103Z,8
2022-10-13T13:40:25.106Z,9
2022-10-13T13:45:25.106Z,8.4
2022-10-13T13:50:25.101Z,7.1
2022-10-13T13:55:25.115Z,6.9
2022-10-13T14:00:25.112Z,7.2
2022-10-13T14:05:25.118Z,7.4
2022-10-13T14:10:25.104Z,4
2022-10-13T14:15:27.302Z,6.7
2022-10-13T14:20:25.108Z,7.6
2022-10-13T14:25:25.101Z,0
2022-10-13T14:30:25.107Z,0
2022-10-13T14:35:25.103Z,0
2022-10-13T14:40:25.103Z,6.7
2022-10-13T14:45:25.102Z,5
2022-10-13T14:50:25.109Z,7.2
2022-10-13T14:55:25.109Z,7.2
2022-10-13T15:00:25.095Z,7.2
2022-10-13T15:05:25.103Z,8.3
2022-10-13T15:10:25.131Z,7.9
2022-10-13T15:15:25.113Z,7.4
2022-10-13T15:20:25.106Z,6.8
2022-10-13T15:25:25.100Z,6.8
2022-10-13T15:30:25.101Z,5.3
2022-10-13T15:35:25.116Z,6.7
2022-10-13T15:40:25.099Z,4.7
2022-10-13T15:45:25.108Z,4.7
2022-10-13T15:50:25.117Z,0
2022-10-13T15:55:25.117Z,0
2022-10-13T16:00:25.137Z,6.8
2022-10-13T16:05:25.115Z,0
2022-10-13T16:10:25.115Z,4.1
2022-10-13T16:15:25.115Z,0
2022-10-13T16:20:25.112Z,4.6
2022-10-13T16:25:25.095Z,0
2022-10-13T16:30:25.101Z,0
2022-10-13T16:35:25.114Z,0
2022-10-13T16:40:25.107Z,0
2022-10-13T16:45:35.642Z,0
2022-10-13T16:50:25.099Z,4
2022-10-13T16:55:25.103Z,5.7
2022-10-13T17:00:25.148Z,6
2022-10-13T17:05:25.111Z,0
2022-10-13T17:10:25.112Z,0
2022-10-13T17:15:25.109Z,0
2022-10-13T17:20:25.102Z,0
2022-10-13T17:25:25.100Z,4.1
2022-10-13T17:30:25.115Z,5.3
2022-10-13T17:35:25.110Z,4.8
2022-10-13T17:40:25.095Z,5.5
2022-10-13T17:45:25.110Z,5.5
2022-10-13T17:50:25.097Z,0
2022-10-13T17:55:25.103Z,0
2022-10-13T18:00:25.101Z,0
2022-10-13T18:05:25.114Z,4
2022-10-13T18:10:25.116Z,0
2022-10-13T18:15:25.108Z,5.4
2022-10-13T18:20:25.103Z,4.8
2022-10-13T18:25:25.124Z,6
2022-10-13T18:30:25.104Z,6.3
2022-10-13T18:35:28.719Z,4
2022-10-13T18:40:25.097Z,4
2022-10-13T18:45:25.117Z,4.6
2022-10-13T18:50:25.114Z,5.7
2022-10-13T18:55:25.101Z,6.2
2022-10-13T19:00:25.204Z,7.6
2022-10-13T19:05:25.105Z,8.5
2022-10-13T19:10:25.108Z,5.9
2022-10-13T19:15:25.106Z,10
2022-10-13T19:20:25.109Z,8.8
2022-10-13T19:25:25.110Z,8.8
2022-10-13T19:30:25.112Z,10.6
2022-10-13T19:35:25.113Z,0
2022-10-13T19:40:25.102Z,0
2022-10-13T19:45:25.103Z,7.4
2022-10-13T19:50:25.105Z,12.6
2022-10-13T19:55:25.123Z,10.3
2022-10-13T20:00:25.144Z,12.9
2022-10-13T20:05:25.625Z,12.5
2022-10-13T20:10:25.105Z,7.7
2022-10-13T20:15:25.101Z,10.6
2022-10-13T20:20:25.099Z,8.3
2022-10-13T20:25:25.118Z,10.6
2022-10-13T20:30:25.106Z,9.3
2022-10-13T20:35:25.127Z,8.8
2022-10-13T20:40:25.191Z,5.9
2022-10-13T20:45:25.111Z,6.5
2022-10-13T20:50:25.102Z,6.5
2022-10-13T20:55:25.106Z,5.2
2022-10-13T21:00:25.125Z,5.2
2022-10-13T21:05:25.109Z,5.2
2022-10-13T21:10:25.099Z,4
2022-10-13T21:15:25.108Z,4
2022-10-13T21:20:25.105Z,5
2022-10-13T21:25:25.104Z,5.8
2022-10-13T21:30:25.106Z,9.7
2022-10-13T21:35:25.106Z,9.7
2022-10-13T21:40:25.100Z,8
2022-10-13T21:45:25.107Z,8
2022-10-13T21:50:25.105Z,7.8
2022-10-13T21:55:25.115Z,8.9
2022-10-13T22:00:25.121Z,5.9
2022-10-13T22:05:25.101Z,8
2022-10-13T22:10:25.103Z,6.5
2022-10-13T22:15:25.109Z,8.9
2022-10-13T22:20:25.103Z,10.7
2022-10-13T22:25:25.111Z,10.2
2022-10-13T22:30:25.105Z,8.7
2022-10-13T22:35:25.108Z,8.3
2022-10-13T22:40:25.097Z,10.8
2022-10-13T22:45:25.111Z,10.4
2022-10-13T22:50:25.100Z,9.9
2022-10-13T22:55:25.114Z,12.6
2022-10-13T23:00:25.107Z,8.7
2022-10-13T23:05:25.108Z,10.4
2022-10-13T23:10:25.105Z,12.3
2022-10-13T23:15:25.143Z,20.2
2022-10-13T23:20:25.148Z,20.2
2022-10-13T23:25:25.115Z,11.8
2022-10-13T23:30:25.107Z,15.7
2022-10-13T23:35:25.115Z,20.4
2022-10-13T23:40:25.117Z,14
2022-10-13T23:45:25.122Z,12.4
2022-10-13T23:50:25.114Z,14.7
2022-10-13T23:55:25.112Z,12.2
